Time;durP1;ratioP1;P1;durP2;ratioP2;P2;SDS_P1;SDS_P2;PMS_P1;PMS_P2;Temp;Humidity;BMP_temperature;BMP_pressure;BME280_temperature;BME280_humidity;BME280_pressure;Samples;Min_cycle;Max_cycle;Signal;HPM_P1;HPM_P2
2021/09/22 00:02:02;;;;;;;4.40;4.00;;;11.60;99.90;;;;;;6199469;22;20349;-87
2021/09/22 00:10:38;;;;;;;5.65;4.13;;;11.60;99.90;;;;;;6268154;22;20456;-91
2021/09/22 00:19:28;;;;;;;4.82;4.43;;;11.70;99.90;;;;;;6234108;22;20426;-89
2021/09/22 00:22:12;;;;;;;4.60;4.03;;;11.80;99.90;;;;;;6169260;22;20388;-89
2021/09/22 00:24:59;;;;;;;3.50;3.20;;;11.70;99.90;;;;;;6116515;23;20525;-89
2021/09/22 00:27:44;;;;;;;4.30;3.90;;;11.70;99.90;;;;;;6137441;23;20423;-89
2021/09/22 00:30:28;;;;;;;3.67;3.38;;;11.80;99.90;;;;;;6179065;23;20361;-89
2021/09/22 00:33:13;;;;;;;4.43;4.03;;;11.80;99.90;;;;;;6176171;23;20451;-88
2021/09/22 00:35:59;;;;;;;4.90;4.20;;;11.80;99.90;;;;;;6172965;23;20375;-89
2021/09/22 00:38:44;;;;;;;4.20;3.80;;;11.80;99.90;;;;;;6157416;23;20447;-89
2021/09/22 00:41:28;;;;;;;4.80;4.32;;;11.80;99.90;;;;;;6174158;23;20351;-89
2021/09/22 00:44:12;;;;;;;4.78;4.32;;;11.70;99.90;;;;;;6163859;23;20391;-89
2021/09/22 00:49:59;;;;;;;5.00;4.50;;;11.70;99.90;;;;;;6266290;22;20366;-90
2021/09/22 00:52:44;;;;;;;4.80;4.40;;;11.70;99.90;;;;;;6184606;22;20377;-91
2021/09/22 00:55:28;;;;;;;6.47;4.68;;;11.60;99.90;;;;;;6191421;22;20434;-89
2021/09/22 00:58:13;;;;;;;3.85;3.55;;;11.50;99.90;;;;;;6187851;22;20377;-90
2021/09/22 01:01:01;;;;;;;5.85;4.30;;;11.70;99.90;;;;;;6177269;23;20410;-89
2021/09/22 01:09:38;;;;;;;4.75;4.03;;;11.70;99.90;;;;;;6248411;22;20403;-87
2021/09/22 01:18:28;;;;;;;3.73;2.93;;;11.70;99.90;;;;;;6256495;22;20381;-90
2021/09/22 01:21:19;;;;;;;3.00;2.80;;;11.80;99.90;;;;;;6218330;22;20468;-88
2021/09/22 01:24:07;;;;;;;4.90;3.30;;;11.80;99.90;;;;;;6215936;23;20418;-89
2021/09/22 01:26:52;;;;;;;3.67;3.37;;;11.80;99.90;;;;;;6173292;23;20347;-90
2021/09/22 01:29:37;;;;;;;3.80;3.50;;;11.80;99.90;;;;;;6172361;23;20429;-91
2021/09/22 01:32:24;;;;;;;4.15;3.22;;;11.90;99.90;;;;;;6215157;23;20363;-89
2021/09/22 01:35:13;;;;;;;3.65;3.35;;;11.80;99.90;;;;;;6174922;22;20354;-89
2021/09/22 01:38:22;;;;;;;4.50;3.95;;;11.80;99.90;;;;;;6196892;23;20437;-90
2021/09/22 01:44:04;;;;;;;4.17;3.67;;;11.80;99.90;;;;;;6235637;22;20369;-87
2021/09/22 01:53:00;;;;;;;4.55;4.15;;;11.80;99.90;;;;;;6246149;22;20356;-90
2021/09/22 01:55:45;;;;;;;3.13;2.90;;;11.70;99.90;;;;;;6140490;23;20388;-90
2021/09/22 01:58:33;;;;;;;6.13;4.05;;;11.70;99.90;;;;;;6212208;22;20354;-87
2021/09/22 02:01:30;;;;;;;3.90;3.50;;;11.70;99.90;;;;;;6221895;22;20416;-91
2021/09/22 02:04:17;;;;;;;4.18;3.65;;;11.70;99.90;;;;;;6155520;23;20422;-90
2021/09/22 02:10:12;;;;;;;4.30;3.90;;;11.70;99.90;;;;;;6261298;22;20557;-91
2021/09/22 02:12:57;;;;;;;3.53;3.22;;;11.70;99.90;;;;;;6200675;22;20429;-88
2021/09/22 02:15:45;;;;;;;5.18;4.22;;;11.70;99.90;;;;;;6187221;22;20375;-89
2021/09/22 02:18:48;;;;;;;3.88;3.50;;;11.70;99.90;;;;;;6194184;23;20376;-90
2021/09/22 02:21:34;;;;;;;3.53;3.23;;;11.70;99.90;;;;;;6212591;23;20668;-89
2021/09/22 02:24:24;;;;;;;3.58;3.28;;;11.70;99.90;;;;;;6163985;23;20384;-90
2021/09/22 02:27:14;;;;;;;3.95;3.65;;;11.70;99.90;;;;;;6121676;23;20456;-90
2021/09/22 02:29:59;;;;;;;3.33;3.13;;;11.70;99.90;;;;;;6141109;23;20363;-89
2021/09/22 02:32:45;;;;;;;3.60;3.30;;;11.70;99.90;;;;;;6122077;23;20380;-90
2021/09/22 02:35:30;;;;;;;3.73;3.37;;;11.70;99.90;;;;;;6120795;23;20379;-85
2021/09/22 02:38:50;;;;;;;3.10;2.80;;;11.60;99.90;;;;;;6030486;23;20454;-89
2021/09/22 02:41:35;;;;;;;2.85;2.65;;;11.60;99.90;;;;;;6036499;23;20575;-90
2021/09/22 02:44:20;;;;;;;3.25;3.03;;;11.50;99.90;;;;;;6018557;23;20412;-91
2021/09/22 02:47:07;;;;;;;3.35;3.05;;;11.50;99.90;;;;;;6104516;23;20384;-90
2021/09/22 02:49:51;;;;;;;3.28;3.08;;;11.50;99.90;;;;;;6119417;23;20356;-89
2021/09/22 02:52:36;;;;;;;3.00;2.42;;;11.40;99.90;;;;;;6120820;23;20364;-91
2021/09/22 02:55:20;;;;;;;3.22;2.80;;;11.40;99.90;;;;;;6120536;23;21425;-89
2021/09/22 02:58:06;;;;;;;3.42;3.15;;;11.50;99.90;;;;;;6140683;23;20385;-87
2021/09/22 03:00:52;;;;;;;3.75;3.33;;;11.40;99.90;;;;;;6161075;23;20397;-89
2021/09/22 03:03:37;;;;;;;2.90;2.70;;;11.40;99.90;;;;;;6116736;23;20453;-90
2021/09/22 03:06:23;;;;;;;3.53;3.22;;;11.30;99.90;;;;;;6130046;23;20368;-88
2021/09/22 03:09:07;;;;;;;3.70;3.40;;;11.30;99.90;;;;;;6121205;23;20388;-90
2021/09/22 03:11:52;;;;;;;3.95;3.42;;;11.20;99.90;;;;;;6121830;23;20364;-89
2021/09/22 03:14:37;;;;;;;4.88;3.58;;;11.20;99.90;;;;;;6142050;23;20771;-87
2021/09/22 03:17:21;;;;;;;2.72;2.50;;;11.20;99.90;;;;;;6142863;23;20422;-90
2021/09/22 03:20:06;;;;;;;3.40;3.10;;;11.20;99.90;;;;;;6139862;23;20454;-88
2021/09/22 03:22:59;;;;;;;2.73;2.53;;;11.20;99.90;;;;;;6184146;23;20392;-90
2021/09/22 03:25:52;;;;;;;3.30;3.00;;;11.20;99.90;;;;;;6194491;23;20430;-90
2021/09/22 03:28:36;;;;;;;3.40;3.10;;;11.20;99.90;;;;;;6190268;23;20394;-90
2021/09/22 03:31:21;;;;;;;3.30;3.00;;;11.20;99.90;;;;;;6188955;23;20392;-86
2021/09/22 03:34:06;;;;;;;3.45;2.88;;;11.10;99.90;;;;;;6194534;23;20355;-89
2021/09/22 03:41:04;;;;;;;3.65;3.15;;;11.10;99.90;;;;;;6236891;22;20445;-91
2021/09/22 03:43:49;;;;;;;2.80;2.60;;;11.20;99.90;;;;;;6145925;23;20368;-90
2021/09/22 03:53:29;;;;;;;3.97;3.20;;;11.20;99.90;;;;;;6222169;22;20414;-89
2021/09/22 04:14:36;;;;;;;2.50;2.30;;;11.20;99.90;;;;;;6229222;23;20392;-91
2021/09/22 04:20:19;;;;;;;3.63;2.90;;;11.20;99.90;;;;;;6230001;22;20425;-87
2021/09/22 10:56:31;;;;;;;3.85;1.67;;;17.50;99.90;;;;;;6198256;23;20382;-86
2021/09/22 10:59:29;;;;;;;3.60;1.80;;;17.40;99.90;;;;;;6114981;23;20416;-90
2021/09/22 11:02:13;;;;;;;3.15;1.50;;;17.30;99.90;;;;;;6157950;23;20400;-89
2021/09/22 11:05:01;;;;;;;4.88;1.80;;;17.20;99.90;;;;;;6120214;23;20438;-91
2021/09/22 11:08:03;;;;;;;1.83;1.70;;;17.00;99.90;;;;;;6118157;23;20388;-91
2021/09/22 11:10:54;;;;;;;2.47;1.80;;;17.20;99.90;;;;;;6139220;23;20368;-88
2021/09/22 11:13:38;;;;;;;3.10;1.65;;;17.60;99.90;;;;;;6138797;23;20749;-89
2021/09/22 11:16:25;;;;;;;3.97;1.70;;;17.50;99.90;;;;;;6119331;23;20433;-91
2021/09/22 11:19:11;;;;;;;2.70;1.75;;;17.60;99.90;;;;;;6119726;23;20379;-89
2021/09/22 11:21:56;;;;;;;5.32;2.25;;;17.40;99.90;;;;;;6122707;23;20360;-91
2021/09/22 11:24:41;;;;;;;4.93;2.20;;;17.40;99.90;;;;;;6141528;23;20364;-92
2021/09/22 11:27:27;;;;;;;6.05;1.95;;;17.10;99.90;;;;;;6141655;23;20415;-93
2021/09/22 11:30:11;;;;;;;2.35;1.50;;;17.40;99.90;;;;;;6119678;23;20360;-87
2021/09/22 11:32:57;;;;;;;1.52;1.42;;;17.50;99.90;;;;;;6161672;23;20393;-90
2021/09/22 11:35:42;;;;;;;2.47;1.75;;;17.50;99.90;;;;;;6120576;23;20365;-91
2021/09/22 11:38:32;;;;;;;3.50;1.70;;;17.50;99.90;;;;;;6141007;23;20372;-84
2021/09/22 11:41:18;;;;;;;2.60;1.70;;;17.50;99.90;;;;;;6118894;23;20377;-89
2021/09/22 11:44:06;;;;;;;1.80;1.60;;;17.30;99.90;;;;;;6119046;23;20399;-90
2021/09/22 11:47:02;;;;;;;4.38;1.88;;;17.30;99.90;;;;;;6116379;23;20381;-93
2021/09/22 11:49:47;;;;;;;2.53;1.73;;;17.20;99.90;;;;;;6135407;23;20439;-89
2021/09/22 11:52:31;;;;;;;4.68;2.05;;;17.10;99.90;;;;;;6115389;23;20425;-91
2021/09/22 11:55:18;;;;;;;2.00;1.80;;;17.20;99.90;;;;;;6179875;23;20387;-93
2021/09/22 11:58:07;;;;;;;1.75;1.60;;;17.20;99.90;;;;;;6119250;23;20400;-89
2021/09/22 12:00:58;;;;;;;5.05;2.00;;;17.20;99.90;;;;;;6141073;23;20377;-91
2021/09/22 12:03:42;;;;;;;1.83;1.63;;;17.30;99.90;;;;;;6119111;23;20372;-91
2021/09/22 12:06:27;;;;;;;4.13;1.77;;;17.30;99.90;;;;;;6139239;23;20400;-90
2021/09/22 12:09:12;;;;;;;3.22;1.92;;;17.50;99.90;;;;;;6121121;23;20357;-92
2021/09/22 12:12:19;;;;;;;1.65;1.45;;;17.70;99.90;;;;;;6120263;23;20368;-90
2021/09/22 12:15:04;;;;;;;5.32;2.03;;;17.70;99.90;;;;;;6161459;23;20379;-90
2021/09/22 12:17:50;;;;;;;4.13;2.00;;;17.80;99.90;;;;;;6160224;23;20380;-91
2021/09/22 12:20:37;;;;;;;3.20;1.83;;;17.90;99.90;;;;;;6119016;23;20400;-91
2021/09/22 12:23:28;;;;;;;2.88;1.58;;;18.10;99.90;;;;;;6119849;23;20376;-91
2021/09/22 12:26:14;;;;;;;1.92;1.73;;;18.10;99.90;;;;;;6139621;23;21169;-93
2021/09/22 12:29:04;;;;;;;4.53;1.83;;;18.10;99.90;;;;;;6118478;23;20392;-91
2021/09/22 12:31:48;;;;;;;2.33;1.80;;;18.00;99.90;;;;;;6160826;23;20388;-92
2021/09/22 12:34:39;;;;;;;1.60;1.50;;;18.20;99.90;;;;;;6117838;23;20356;-91
2021/09/22 12:37:30;;;;;;;1.55;1.38;;;18.10;99.90;;;;;;6118514;23;20364;-91
2021/09/22 12:40:14;;;;;;;2.67;1.70;;;18.40;99.90;;;;;;6140530;23;20361;-92
2021/09/22 12:43:00;;;;;;;3.28;2.20;;;18.40;99.90;;;;;;6118106;23;21319;-91
2021/09/22 12:45:45;;;;;;;3.60;1.80;;;18.60;99.90;;;;;;6119823;23;20365;-90
2021/09/22 12:48:29;;;;;;;1.70;1.40;;;18.70;99.90;;;;;;6117405;23;20380;-90
2021/09/22 12:51:18;;;;;;;4.05;2.20;;;18.80;99.90;;;;;;6112608;23;20924;-90
2021/09/22 12:54:06;;;;;;;2.85;1.77;;;18.40;99.90;;;;;;6110580;23;20381;-91
2021/09/22 12:56:50;;;;;;;3.90;2.00;;;18.20;99.90;;;;;;6110027;23;20381;-89
2021/09/22 12:59:35;;;;;;;1.55;1.45;;;18.00;99.90;;;;;;6109671;23;20379;-91
2021/09/22 13:02:25;;;;;;;2.03;1.73;;;18.00;99.90;;;;;;6110170;23;20372;-92
2021/09/22 13:05:09;;;;;;;2.58;1.65;;;18.10;99.90;;;;;;6134036;23;20436;-88
2021/09/22 13:07:59;;;;;;;2.55;1.75;;;18.30;99.90;;;;;;6118099;23;20388;-90
2021/09/22 13:10:53;;;;;;;2.35;1.90;;;18.30;99.90;;;;;;6121830;23;20364;-90
2021/09/22 13:14:20;;;;;;;2.88;1.60;;;18.20;99.90;;;;;;6140489;23;20364;-91
2021/09/22 13:17:04;;;;;;;3.58;1.98;;;18.10;99.90;;;;;;6032721;23;20407;-91
2021/09/22 13:19:49;;;;;;;2.00;1.70;;;18.30;99.90;;;;;;6005340;23;20993;-92
2021/09/22 13:22:34;;;;;;;2.00;1.50;;;18.30;99.90;;;;;;6124469;23;20426;-91
2021/09/22 13:25:18;;;;;;;4.55;2.08;;;18.40;99.90;;;;;;6121471;23;20361;-92
2021/09/22 13:28:03;;;;;;;4.72;1.98;;;18.30;99.90;;;;;;6120318;23;20425;-91
2021/09/22 13:30:47;;;;;;;1.70;1.60;;;18.30;99.90;;;;;;6138800;23;20372;-86
2021/09/22 13:33:33;;;;;;;1.48;1.35;;;18.40;99.90;;;;;;6156977;23;20389;-92
2021/09/22 13:36:17;;;;;;;2.00;1.80;;;18.20;99.90;;;;;;6139595;23;20412;-84
2021/09/22 13:39:02;;;;;;;4.50;2.35;;;18.30;99.90;;;;;;6117621;23;20380;-92
2021/09/22 13:41:46;;;;;;;2.30;1.73;;;18.00;99.90;;;;;;6135903;23;20395;-88
2021/09/22 13:44:30;;;;;;;1.85;1.60;;;18.00;99.90;;;;;;6113235;23;20369;-86
2021/09/22 13:47:15;;;;;;;3.22;1.77;;;17.90;99.90;;;;;;6112189;23;20449;-92
2021/09/22 13:49:59;;;;;;;2.65;1.88;;;17.90;99.90;;;;;;6139077;23;20368;-91
2021/09/22 13:52:44;;;;;;;2.88;1.83;;;18.00;99.90;;;;;;6118869;23;20497;-92
2021/09/22 13:55:28;;;;;;;2.67;1.98;;;17.80;99.90;;;;;;6134779;23;20364;-90
2021/09/22 13:58:12;;;;;;;2.70;1.80;;;17.80;99.90;;;;;;6132804;23;20440;-94
2021/09/22 14:00:58;;;;;;;1.63;1.52;;;17.70;99.90;;;;;;6118156;23;20384;-90
2021/09/22 14:03:43;;;;;;;3.70;1.80;;;17.70;99.90;;;;;;6121768;23;20418;-91
2021/09/22 14:06:28;;;;;;;4.80;2.03;;;17.80;99.90;;;;;;6106663;23;20377;-91
2021/09/22 14:09:12;;;;;;;5.32;1.70;;;17.80;99.90;;;;;;6105305;23;20428;-91
2021/09/22 14:11:56;;;;;;;3.00;1.83;;;17.60;99.90;;;;;;6139892;23;20372;-87
2021/09/22 14:14:41;;;;;;;3.08;1.70;;;17.60;99.90;;;;;;6121904;23;20344;-90
2021/09/22 14:17:26;;;;;;;29.55;10.70;;;17.60;99.90;;;;;;6140662;23;20373;-92
2021/09/22 14:20:11;;;;;;;7.00;2.38;;;17.70;99.90;;;;;;6122567;23;20400;-92
2021/09/22 14:22:56;;;;;;;3.50;2.05;;;17.80;99.90;;;;;;6141326;23;20380;-92
2021/09/22 14:25:40;;;;;;;2.47;1.50;;;17.90;99.90;;;;;;6122952;23;20517;-90
2021/09/22 14:28:25;;;;;;;2.90;2.08;;;18.00;99.90;;;;;;6143439;23;20596;-90
2021/09/22 14:31:09;;;;;;;1.80;1.50;;;18.00;99.90;;;;;;6123714;23;20376;-92
2021/09/22 14:33:54;;;;;;;1.83;1.55;;;17.80;99.90;;;;;;6122573;23;20384;-91
2021/09/22 14:36:38;;;;;;;3.30;1.43;;;18.20;99.90;;;;;;6163800;23;20372;-91
2021/09/22 14:39:22;;;;;;;2.35;1.73;;;18.00;99.90;;;;;;6164744;23;20400;-91
2021/09/22 14:42:07;;;;;;;3.70;1.27;;;18.20;99.90;;;;;;6142934;23;20368;-92
2021/09/22 14:44:51;;;;;;;1.75;1.63;;;18.30;99.90;;;;;;6123961;23;20372;-92
2021/09/22 15:11:24;;;;;;;5.67;1.97;;;18.00;99.90;;;;;;6267921;22;20377;-93
2021/09/22 15:14:08;;;;;;;2.40;1.60;;;18.10;99.90;;;;;;6176158;22;20417;-90
2021/09/22 15:40:21;;;;;;;1.83;1.55;;;17.90;99.90;;;;;;6233329;22;20455;-91
2021/09/22 15:43:05;;;;;;;3.15;1.88;;;17.90;99.90;;;;;;6181793;23;20463;-89
2021/09/22 15:45:50;;;;;;;3.60;1.80;;;17.90;99.90;;;;;;6138171;23;20455;-86
2021/09/22 15:48:34;;;;;;;3.13;1.30;;;17.90;99.90;;;;;;6136341;23;20498;-83
2021/09/22 15:51:18;;;;;;;2.20;1.55;;;17.90;99.90;;;;;;6155460;23;20421;-89
2021/09/22 15:54:03;;;;;;;1.30;1.20;;;18.00;99.90;;;;;;6177940;23;20443;-86
2021/09/22 15:56:48;;;;;;;2.40;1.40;;;17.90;99.90;;;;;;6137249;23;20390;-83
2021/09/22 15:59:36;;;;;;;1.30;1.20;;;17.90;99.90;;;;;;6134036;23;20451;-84
2021/09/22 16:02:20;;;;;;;2.40;1.23;;;18.00;99.90;;;;;;6137389;23;20385;-89
2021/09/22 16:05:06;;;;;;;1.80;1.70;;;18.10;99.90;;;;;;6155607;23;20864;-85
2021/09/22 16:07:50;;;;;;;2.72;1.80;;;17.90;99.90;;;;;;6156035;23;20362;-85
2021/09/22 16:10:35;;;;;;;1.50;1.40;;;17.80;99.90;;;;;;6136474;23;20390;-87
2021/09/22 16:13:19;;;;;;;4.07;1.73;;;17.80;99.90;;;;;;6133709;23;20409;-83
2021/09/22 16:16:03;;;;;;;1.65;1.48;;;17.90;99.90;;;;;;6135840;23;20367;-89
2021/09/22 16:18:48;;;;;;;1.80;1.38;;;17.90;99.90;;;;;;6135233;23;20362;-88
2021/09/22 16:21:32;;;;;;;1.52;1.42;;;18.00;99.90;;;;;;6155732;23;20454;-84
2021/09/22 16:24:17;;;;;;;1.30;1.20;;;17.90;99.90;;;;;;6134507;23;20371;-90
2021/09/22 16:27:01;;;;;;;1.38;1.27;;;17.80;99.90;;;;;;6134533;23;20398;-85
2021/09/22 16:29:47;;;;;;;2.50;1.30;;;17.70;99.90;;;;;;6153598;23;20748;-86
2021/09/22 16:32:32;;;;;;;2.38;1.63;;;17.60;99.90;;;;;;6155122;23;20429;-86
2021/09/22 16:35:16;;;;;;;1.48;1.33;;;17.50;99.90;;;;;;6155304;23;20387;-84
2021/09/22 16:38:00;;;;;;;1.45;1.35;;;17.50;99.90;;;;;;6157321;23;20477;-84
2021/09/22 16:40:44;;;;;;;1.90;1.48;;;17.50;99.90;;;;;;6155036;23;20414;-84
2021/09/22 16:43:29;;;;;;;2.77;1.60;;;17.60;99.90;;;;;;6135574;23;20374;-88
2021/09/22 16:46:13;;;;;;;5.38;1.88;;;17.60;99.90;;;;;;6157855;23;20374;-87
2021/09/22 16:48:58;;;;;;;1.40;1.30;;;17.60;99.90;;;;;;6135278;23;20382;-85
2021/09/22 16:51:42;;;;;;;3.10;1.80;;;17.50;99.90;;;;;;6157176;23;20383;-85
2021/09/22 16:54:27;;;;;;;1.58;1.48;;;17.30;99.90;;;;;;6156572;23;20421;-85
2021/09/22 16:57:11;;;;;;;3.20;1.60;;;17.10;99.90;;;;;;6156037;23;20439;-87
2021/09/22 16:59:55;;;;;;;1.25;1.15;;;17.10;99.90;;;;;;6156264;23;20459;-83
2021/09/22 17:02:40;;;;;;;0.98;0.98;;;17.10;99.90;;;;;;6156215;23;20370;-84
2021/09/22 17:05:28;;;;;;;0.88;0.88;;;17.10;99.90;;;;;;6158100;23;20378;-87
2021/09/22 17:08:13;;;;;;;1.98;1.50;;;17.10;99.90;;;;;;6156741;23;20398;-85
2021/09/22 17:10:58;;;;;;;2.30;1.58;;;17.20;99.90;;;;;;6158726;23;20433;-85
2021/09/22 17:13:42;;;;;;;4.30;1.50;;;17.00;99.90;;;;;;6157456;23;20374;-86
2021/09/22 17:16:27;;;;;;;0.98;0.98;;;16.90;99.90;;;;;;6159213;23;20431;-89
2021/09/22 17:19:14;;;;;;;4.03;1.58;;;16.90;99.90;;;;;;6132631;23;22073;-87
2021/09/22 17:21:58;;;;;;;1.35;1.25;;;16.70;99.90;;;;;;6160472;23;20359;-88
2021/09/22 17:24:42;;;;;;;1.75;1.10;;;16.60;99.90;;;;;;6161058;23;20363;-89
2021/09/22 17:27:26;;;;;;;2.35;1.52;;;16.50;99.90;;;;;;6161948;23;20386;-87
2021/09/22 17:30:11;;;;;;;1.48;1.30;;;16.60;99.90;;;;;;6160815;23;20414;-82
2021/09/22 17:32:55;;;;;;;0.80;0.80;;;16.50;99.90;;;;;;6180605;23;20393;-84
2021/09/22 17:35:40;;;;;;;1.30;1.20;;;16.50;99.90;;;;;;6159410;23;20371;-82
2021/09/22 17:38:24;;;;;;;3.40;1.20;;;16.50;99.90;;;;;;6140090;23;20422;-87
2021/09/22 17:41:08;;;;;;;1.57;1.37;;;16.40;99.90;;;;;;6138606;23;20358;-88
2021/09/22 17:43:54;;;;;;;3.20;1.58;;;16.30;99.90;;;;;;6131844;23;20370;-88
2021/09/22 17:46:38;;;;;;;1.70;1.17;;;16.40;99.90;;;;;;6197220;23;20370;-85
2021/09/22 17:49:23;;;;;;;1.35;1.25;;;16.30;99.90;;;;;;6160068;23;20371;-87
2021/09/22 17:52:10;;;;;;;1.27;1.17;;;16.20;99.90;;;;;;6182598;23;20414;-84
2021/09/22 17:54:55;;;;;;;2.55;1.30;;;16.10;99.90;;;;;;6181342;23;20444;-87
2021/09/22 17:57:39;;;;;;;2.30;1.60;;;16.00;99.90;;;;;;6181151;23;20434;-89
2021/09/22 18:00:24;;;;;;;1.70;1.08;;;16.00;99.90;;;;;;6157941;23;20379;-84
2021/09/22 18:03:08;;;;;;;3.70;1.30;;;15.90;99.90;;;;;;6161432;23;20978;-87
2021/09/22 18:05:52;;;;;;;1.40;1.30;;;15.90;99.90;;;;;;6160863;23;20427;-85
2021/09/22 18:08:37;;;;;;;1.10;1.00;;;15.70;99.90;;;;;;6181890;23;20447;-88
2021/09/22 18:11:21;;;;;;;1.00;1.00;;;15.90;99.90;;;;;;6140336;23;20379;-85
2021/09/22 18:14:06;;;;;;;1.50;1.27;;;15.70;99.90;;;;;;6161355;23;20386;-86
2021/09/22 18:16:50;;;;;;;1.80;1.20;;;15.70;99.90;;;;;;6181158;23;20451;-85
2021/09/22 18:19:37;;;;;;;1.10;0.90;;;15.70;99.90;;;;;;6160940;23;20398;-86
2021/09/22 18:22:22;;;;;;;0.82;0.82;;;15.70;99.90;;;;;;6162737;23;20358;-85
2021/09/22 18:25:07;;;;;;;0.85;0.85;;;15.80;99.90;;;;;;6139992;23;20382;-86
2021/09/22 18:27:51;;;;;;;0.90;0.80;;;15.80;99.90;;;;;;6159913;23;20365;-86
2021/09/22 18:30:36;;;;;;;1.23;1.13;;;15.70;99.90;;;;;;6160776;23;20366;-85
2021/09/22 18:33:20;;;;;;;1.13;1.02;;;15.80;99.90;;;;;;6160911;23;20370;-84
2021/09/22 18:36:05;;;;;;;1.33;1.23;;;15.70;99.90;;;;;;6160415;23;20704;-86
2021/09/22 18:38:49;;;;;;;0.97;0.97;;;15.50;99.90;;;;;;6181407;23;20371;-87
2021/09/22 18:41:33;;;;;;;0.80;0.80;;;15.60;99.90;;;;;;6181300;23;20370;-85
2021/09/22 18:44:18;;;;;;;0.70;0.70;;;15.60;99.90;;;;;;6180089;23;20371;-85
2021/09/22 18:47:03;;;;;;;0.85;0.85;;;15.60;99.90;;;;;;6158537;23;20371;-84
2021/09/22 18:49:47;;;;;;;1.20;1.10;;;15.70;99.90;;;;;;6157725;23;20466;-86
2021/09/22 18:52:31;;;;;;;2.63;1.40;;;15.60;99.90;;;;;;6159020;23;20726;-89
2021/09/22 18:55:15;;;;;;;1.48;1.27;;;15.50;99.90;;;;;;6160868;23;20378;-84
2021/09/22 18:58:00;;;;;;;1.30;1.20;;;15.40;99.90;;;;;;6181758;23;20867;-88
2021/09/22 19:00:44;;;;;;;1.55;1.30;;;15.30;99.90;;;;;;6181580;23;20374;-84
2021/09/22 19:03:28;;;;;;;1.30;1.20;;;15.30;99.90;;;;;;6180740;23;20375;-86
2021/09/22 19:06:13;;;;;;;1.40;1.30;;;15.10;99.90;;;;;;6200328;23;20478;-86
2021/09/22 19:08:57;;;;;;;1.30;1.20;;;15.00;99.90;;;;;;6159017;23;20406;-89
2021/09/22 19:11:42;;;;;;;1.30;1.30;;;15.00;99.90;;;;;;6179669;23;20414;-86
2021/09/22 19:14:28;;;;;;;2.50;1.33;;;14.90;99.90;;;;;;6160415;23;20375;-85
2021/09/22 19:17:12;;;;;;;1.60;1.30;;;14.90;99.90;;;;;;6222040;23;20378;-87
2021/09/22 19:19:56;;;;;;;1.25;1.17;;;14.90;99.90;;;;;;6158461;23;20375;-83
2021/09/22 19:22:42;;;;;;;1.55;1.35;;;15.00;99.90;;;;;;6159346;23;20757;-87
2021/09/22 19:25:26;;;;;;;0.88;0.88;;;14.90;99.90;;;;;;6181080;23;20962;-92
2021/09/22 19:28:12;;;;;;;1.52;1.42;;;14.90;99.90;;;;;;6202442;23;20382;-87
2021/09/22 19:30:56;;;;;;;1.30;1.20;;;14.80;99.90;;;;;;6181852;23;20397;-87
2021/09/22 19:33:41;;;;;;;1.40;1.30;;;14.80;99.90;;;;;;6163443;23;20414;-91
2021/09/22 19:36:25;;;;;;;1.08;1.08;;;14.70;99.90;;;;;;6163559;23;20375;-90
2021/09/22 19:39:09;;;;;;;2.78;1.33;;;14.70;99.90;;;;;;6162973;23;20398;-85
2021/09/22 19:41:54;;;;;;;2.13;1.58;;;14.60;99.90;;;;;;6181605;23;20374;-86
2021/09/22 19:44:38;;;;;;;1.40;1.30;;;14.60;99.90;;;;;;6183609;23;20828;-89
2021/09/22 19:47:23;;;;;;;1.67;1.50;;;14.60;99.90;;;;;;6204760;23;20355;-89
2021/09/22 19:50:08;;;;;;;1.60;1.38;;;14.50;99.90;;;;;;6183027;23;20447;-86
2021/09/22 19:52:52;;;;;;;1.90;1.70;;;14.40;99.90;;;;;;6183599;23;20424;-84
2021/09/22 19:55:37;;;;;;;1.35;1.25;;;14.40;99.90;;;;;;6202774;23;20378;-85
2021/09/22 19:58:21;;;;;;;1.30;1.20;;;14.30;99.90;;;;;;6163304;23;20366;-86
2021/09/22 20:01:06;;;;;;;1.90;1.45;;;14.20;99.90;;;;;;6182461;23;20473;-87
2021/09/22 20:03:50;;;;;;;2.22;1.63;;;14.20;99.90;;;;;;6161097;23;20912;-89
2021/09/22 20:06:37;;;;;;;1.40;1.30;;;14.10;99.90;;;;;;6205454;23;20375;-86
2021/09/22 20:09:22;;;;;;;1.20;1.10;;;14.10;99.90;;;;;;6164573;23;20383;-86
2021/09/22 20:12:06;;;;;;;1.30;1.20;;;14.00;99.90;;;;;;6204118;23;20402;-86
2021/09/22 20:14:51;;;;;;;1.33;1.23;;;14.00;99.90;;;;;;6186047;23;20940;-85
2021/09/22 20:17:35;;;;;;;2.58;1.63;;;14.00;99.90;;;;;;6187516;23;20386;-90
2021/09/22 20:20:21;;;;;;;1.30;1.20;;;13.90;99.90;;;;;;6185048;23;20383;-87
2021/09/22 20:23:06;;;;;;;2.40;1.50;;;13.70;99.90;;;;;;6188317;23;20359;-87
2021/09/22 20:25:50;;;;;;;1.85;1.52;;;13.70;99.90;;;;;;6169214;23;20359;-85
2021/09/22 20:28:34;;;;;;;5.30;2.22;;;13.50;99.90;;;;;;6168994;23;20386;-87
2021/09/22 20:31:19;;;;;;;1.70;1.60;;;13.40;99.90;;;;;;6209685;23;20378;-91
2021/09/22 20:34:03;;;;;;;2.88;1.88;;;13.30;99.90;;;;;;6169706;23;20447;-89
2021/09/22 20:36:49;;;;;;;1.90;1.57;;;13.20;99.90;;;;;;6191691;23;20435;-85
2021/09/22 20:39:33;;;;;;;1.60;1.50;;;13.10;99.90;;;;;;6191837;23;20398;-89
2021/09/22 20:42:18;;;;;;;1.70;1.60;;;13.10;99.90;;;;;;6169246;23;20394;-89
2021/09/22 20:45:03;;;;;;;1.67;1.25;;;13.10;99.90;;;;;;6169830;23;20358;-87
2021/09/22 20:47:48;;;;;;;5.22;1.38;;;13.00;99.90;;;;;;6212417;23;20424;-89
2021/09/22 20:50:33;;;;;;;1.90;1.40;;;13.00;99.90;;;;;;6170940;23;20382;-89
2021/09/22 20:53:17;;;;;;;1.80;1.60;;;12.90;99.90;;;;;;6172161;23;20370;-88
2021/09/22 20:56:02;;;;;;;2.05;1.85;;;12.90;99.90;;;;;;6191909;23;20359;-86
2021/09/22 20:58:47;;;;;;;1.20;1.13;;;12.70;99.90;;;;;;6171568;23;20359;-88
2021/09/22 21:01:31;;;;;;;2.05;1.85;;;12.70;99.90;;;;;;6171882;23;20366;-86
2021/09/22 21:04:15;;;;;;;2.03;1.52;;;12.70;99.90;;;;;;6171378;23;20367;-86
2021/09/22 21:07:00;;;;;;;1.42;1.33;;;12.50;99.90;;;;;;6192335;23;20458;-88
2021/09/22 21:09:48;;;;;;;1.58;1.48;;;12.50;99.90;;;;;;6192066;22;20406;-89
2021/09/22 21:12:32;;;;;;;2.05;1.65;;;12.50;99.90;;;;;;6192304;23;21403;-85
2021/09/22 21:15:16;;;;;;;3.10;1.60;;;12.50;99.90;;;;;;6234201;23;20398;-92
2021/09/22 21:18:01;;;;;;;2.10;1.55;;;12.40;99.90;;;;;;6191875;23;20381;-88
2021/09/22 21:20:45;;;;;;;1.88;1.38;;;12.30;99.90;;;;;;6191499;23;20399;-89
2021/09/22 21:23:30;;;;;;;1.87;1.63;;;12.20;99.90;;;;;;6170945;23;20410;-90
2021/09/22 21:26:15;;;;;;;1.75;1.65;;;12.20;99.90;;;;;;6192032;23;20371;-90
2021/09/22 21:29:00;;;;;;;2.47;1.70;;;12.20;99.90;;;;;;6212993;23;20391;-87
2021/09/22 21:31:45;;;;;;;2.17;1.33;;;12.10;99.90;;;;;;6171153;23;20383;-89
2021/09/22 21:34:29;;;;;;;3.95;1.88;;;12.20;99.90;;;;;;6171587;23;20374;-89
2021/09/22 21:37:13;;;;;;;1.55;1.40;;;12.10;99.90;;;;;;6192986;23;20371;-89
2021/09/22 21:39:57;;;;;;;1.25;1.15;;;12.00;99.90;;;;;;6192920;23;20383;-87
2021/09/22 21:42:42;;;;;;;1.27;1.10;;;12.00;99.90;;;;;;6171961;23;20371;-90
2021/09/22 21:45:26;;;;;;;1.65;1.48;;;12.00;99.90;;;;;;6213153;23;20359;-89
2021/09/22 21:48:11;;;;;;;2.05;1.40;;;12.10;99.90;;;;;;6192720;23;20378;-89
2021/09/22 21:50:55;;;;;;;1.58;1.35;;;12.10;99.90;;;;;;6193899;23;20370;-89
2021/09/22 21:53:40;;;;;;;1.50;1.40;;;12.00;99.90;;;;;;6234567;23;20399;-92
2021/09/22 21:56:31;;;;;;;2.97;1.75;;;12.00;99.90;;;;;;6171934;23;20371;-89
2021/09/22 21:59:16;;;;;;;1.60;1.50;;;12.00;99.90;;;;;;6195284;23;20354;-88
2021/09/22 22:02:01;;;;;;;1.95;1.40;;;12.20;99.90;;;;;;6172803;23;20405;-87
2021/09/22 22:04:45;;;;;;;1.80;1.65;;;12.10;99.90;;;;;;6191869;23;20411;-89
2021/09/22 22:07:30;;;;;;;1.67;1.58;;;12.00;99.90;;;;;;6192382;23;20383;-88
2021/09/22 22:10:15;;;;;;;4.75;2.05;;;12.10;99.90;;;;;;6192048;23;20351;-88
2021/09/22 22:12:59;;;;;;;1.65;1.55;;;12.10;99.90;;;;;;6193024;23;20416;-89
2021/09/22 22:15:43;;;;;;;2.45;1.85;;;12.00;99.90;;;;;;6191285;23;20654;-89
2021/09/22 22:18:28;;;;;;;2.47;1.88;;;12.10;99.90;;;;;;6192536;23;20370;-89
2021/09/22 22:21:13;;;;;;;2.65;1.80;;;12.00;99.90;;;;;;6193272;23;20367;-86
2021/09/22 22:23:57;;;;;;;1.65;1.55;;;12.00;99.90;;;;;;6213794;23;20478;-90
2021/09/22 22:26:42;;;;;;;1.80;1.50;;;12.00;99.90;;;;;;6172225;23;20472;-90
2021/09/22 22:29:26;;;;;;;1.85;1.67;;;12.00;99.90;;;;;;6191546;23;20399;-89
2021/09/22 22:32:11;;;;;;;1.80;1.65;;;12.00;99.90;;;;;;6192513;23;20443;-87
2021/09/22 22:34:55;;;;;;;2.10;1.75;;;12.00;99.90;;;;;;6212298;23;20390;-87
2021/09/22 22:37:42;;;;;;;2.20;1.85;;;11.90;99.90;;;;;;6191707;23;20430;-87
2021/09/22 22:40:27;;;;;;;1.60;1.50;;;11.90;99.90;;;;;;6190471;23;20463;-89
2021/09/22 22:43:11;;;;;;;1.65;1.55;;;12.10;99.90;;;;;;6171881;23;20366;-89
2021/09/22 22:45:56;;;;;;;1.35;1.30;;;11.90;99.90;;;;;;6192380;23;20378;-89
2021/09/22 22:48:40;;;;;;;3.20;1.92;;;11.80;99.90;;;;;;6212858;23;20354;-89
2021/09/22 22:51:25;;;;;;;2.35;1.85;;;11.70;99.90;;;;;;6212958;23;20403;-89
2021/09/22 22:54:10;;;;;;;1.55;1.45;;;11.90;99.90;;;;;;6192110;23;20362;-89
2021/09/22 22:56:55;;;;;;;2.35;1.95;;;11.80;99.90;;;;;;6192867;23;20358;-89